Time;durP1;ratioP1;P1;durP2;ratioP2;P2;SDS_P1;SDS_P2;PMS_P1;PMS_P2;Temp;Humidity;BMP_temperature;BMP_pressure;BME280_temperature;BME280_humidity;BME280_pressure;Samples;Min_cycle;Max_cycle;Signal;HPM_P1;HPM_P2
2024/04/15 00:00:15;;;;;;;11.57;10.45;;;;;;;31.37;87.99;101022.59;5375856;26;65865;-30
2024/04/15 00:02:46;;;;;;;13.68;10.25;;;;;;;31.42;86.98;101030.06;5383386;26;69554;-31
2024/04/15 00:05:18;;;;;;;14.90;11.10;;;;;;;31.43;87.97;101048.00;5383425;26;63799;-30
2024/04/15 00:07:52;;;;;;;11.17;10.27;;;;;;;31.46;89.27;101041.31;5381389;26;69104;-33
2024/04/15 00:10:23;;;;;;;11.15;10.18;;;;;;;31.50;88.24;101040.63;5372154;26;64971;-31
2024/04/15 00:12:53;;;;;;;20.52;11.80;;;;;;;31.53;88.08;101042.06;5384057;26;68902;-31
2024/04/15 00:15:26;;;;;;;11.15;10.40;;;;;;;31.55;87.18;101039.97;5382654;26;65440;-32
2024/04/15 00:17:57;;;;;;;12.18;11.27;;;;;;;31.54;88.80;101050.00;5383350;26;70018;-31
2024/04/15 00:20:29;;;;;;;11.88;10.65;;;;;;;31.60;87.57;101049.09;5390555;26;65345;-30
2024/04/15 00:23:00;;;;;;;11.20;10.30;;;;;;;31.61;87.62;101055.34;5384399;26;68810;-33
2024/04/15 00:25:31;;;;;;;10.97;10.07;;;;;;;31.61;87.73;101061.59;5380671;26;65782;-31
2024/04/15 00:28:01;;;;;;;12.18;10.57;;;;;;;31.65;87.96;101062.00;5359857;26;67444;-30
2024/04/15 00:30:35;;;;;;;11.63;10.63;;;;;;;31.69;88.16;101078.66;5381440;26;65015;-31
2024/04/15 00:33:06;;;;;;;11.82;10.57;;;;;;;31.72;87.93;101073.63;5381975;26;68762;-30
2024/04/15 00:35:41;;;;;;;20.40;10.60;;;;;;;31.72;86.69;101078.22;5379431;26;65361;-30
2024/04/15 00:38:13;;;;;;;12.27;10.85;;;;;;;31.74;87.63;101073.41;5381716;26;69124;-30
2024/04/15 00:40:44;;;;;;;13.88;10.30;;;;;;;31.77;90.23;101086.53;5373306;26;64954;-30
2024/04/15 00:43:15;;;;;;;10.90;9.88;;;;;;;31.81;88.73;101088.56;5380110;26;67443;-31
2024/04/15 00:45:46;;;;;;;11.60;10.50;;;;;;;31.80;89.20;101096.94;5377360;26;65150;-31
2024/04/15 00:48:18;;;;;;;10.02;9.20;;;;;;;31.79;87.46;101085.25;5377218;26;68040;-32
2024/04/15 00:50:51;;;;;;;11.43;10.43;;;;;;;31.96;86.56;101112.69;5381257;26;65167;-31
2024/04/15 00:53:22;;;;;;;9.95;9.05;;;;;;;31.98;86.82;101110.59;5375207;26;67997;-30
2024/04/15 00:55:55;;;;;;;11.32;10.32;;;;;;;32.03;86.10;101105.28;5385433;26;64198;-32
2024/04/15 00:58:27;;;;;;;10.50;9.48;;;;;;;32.00;85.54;101094.88;5385463;26;68759;-31
2024/04/15 01:01:00;;;;;;;10.38;9.50;;;;;;;32.11;85.11;101111.50;5383348;26;64695;-31
2024/04/15 01:03:31;;;;;;;10.27;9.32;;;;;;;32.13;85.73;101117.53;5359467;26;68395;-32
2024/04/15 01:06:03;;;;;;;9.77;8.87;;;;;;;32.14;84.49;101108.34;5385761;26;65038;-30
2024/04/15 01:08:34;;;;;;;9.45;8.85;;;;;;;32.11;84.67;101114.22;5384662;26;68050;-30
2024/04/15 01:11:04;;;;;;;11.73;9.00;;;;;;;32.20;85.17;101112.88;5385550;26;64678;-30
2024/04/15 01:13:35;;;;;;;8.57;7.90;;;;;;;32.19;85.34;101111.22;5385833;26;68763;-32
2024/04/15 01:16:06;;;;;;;8.90;8.20;;;;;;;32.16;84.50;101106.25;5382418;26;65059;-31
2024/04/15 01:18:36;;;;;;;8.68;8.05;;;;;;;32.20;84.72;101121.84;5385486;26;67953;-33
2024/04/15 01:21:09;;;;;;;11.13;8.70;;;;;;;31.94;83.51;101071.38;5385137;26;66318;-31
2024/04/15 01:23:46;;;;;;;10.95;8.18;;;;;;;32.00;85.04;101081.31;5382982;26;68700;-32
2024/04/15 01:26:18;;;;;;;8.20;7.65;;;;;;;32.26;84.46;101128.25;5386418;26;64746;-32
2024/04/15 01:28:48;;;;;;;8.77;8.07;;;;;;;32.27;83.38;101129.94;5395356;26;69401;-30
2024/04/15 01:31:19;;;;;;;9.00;8.30;;;;;;;32.31;84.11;101120.25;5396275;26;66138;-32
2024/04/15 01:33:50;;;;;;;8.30;7.53;;;;;;;32.32;83.02;101121.94;5383540;26;67287;-31
2024/04/15 01:36:20;;;;;;;7.97;7.28;;;;;;;32.35;83.84;101128.81;5381946;26;64132;-31
2024/04/15 01:39:00;;;;;;;7.35;6.68;;;;;;;32.38;84.06;101133.78;5385223;26;69265;-32
2024/04/15 01:41:34;;;;;;;8.02;7.40;;;;;;;32.39;83.29;101136.25;5378700;26;65082;-31
2024/04/15 01:44:05;;;;;;;8.10;7.60;;;;;;;32.40;83.63;101129.81;5380536;26;68683;-30
2024/04/15 01:46:35;;;;;;;8.32;7.60;;;;;;;32.45;83.79;101131.81;5384122;26;65113;-30
2024/04/15 01:49:07;;;;;;;10.60;7.10;;;;;;;32.45;83.86;101132.66;5383652;26;69166;-32
2024/04/15 01:51:37;;;;;;;8.13;7.50;;;;;;;32.47;83.77;101133.28;5382078;26;65467;-32
2024/04/15 01:54:08;;;;;;;8.82;7.32;;;;;;;32.52;83.43;101137.22;5383742;26;69055;-31
2024/04/15 01:56:39;;;;;;;8.05;7.40;;;;;;;32.56;82.69;101133.00;5380632;26;64962;-32
2024/04/15 01:59:09;;;;;;;8.43;7.65;;;;;;;32.57;83.28;101130.06;5383551;26;69327;-30
2024/04/15 02:01:40;;;;;;;8.95;8.15;;;;;;;32.60;82.75;101134.22;5386437;26;65126;-31
2024/04/15 02:04:10;;;;;;;7.30;6.90;;;;;;;32.62;82.81;101129.38;5405215;26;68547;-31
2024/04/15 02:06:42;;;;;;;9.05;7.38;;;;;;;32.65;81.75;101131.63;5385481;26;65551;-31
2024/04/15 02:09:12;;;;;;;7.97;7.22;;;;;;;32.67;83.26;101134.97;5384518;26;68518;-31
2024/04/15 02:11:43;;;;;;;8.07;7.47;;;;;;;32.66;82.83;101123.25;5382589;26;64701;-30
2024/04/15 02:14:14;;;;;;;8.40;7.65;;;;;;;32.72;81.37;101132.41;5385734;26;68806;-31
2024/04/15 02:16:45;;;;;;;7.28;6.78;;;;;;;32.76;82.72;101132.75;5385390;26;64231;-30
2024/04/15 02:19:15;;;;;;;8.35;7.50;;;;;;;32.70;81.59;101113.59;5382345;26;68872;-31
2024/04/15 02:21:46;;;;;;;8.00;7.20;;;;;;;32.83;81.40;101123.47;5384606;26;65456;-30
2024/04/15 02:24:17;;;;;;;7.55;6.97;;;;;;;32.85;81.40;101126.81;5375922;26;68850;-30
2024/04/15 02:26:48;;;;;;;7.88;7.35;;;;;;;32.88;81.82;101126.34;5382109;26;64835;-31
2024/04/15 02:29:18;;;;;;;9.15;8.30;;;;;;;32.94;82.15;101139.00;5381268;26;69877;-31
2024/04/15 02:31:49;;;;;;;7.93;7.32;;;;;;;32.99;81.54;101126.63;5384101;26;64842;-31
2024/04/15 02:34:21;;;;;;;8.00;7.40;;;;;;;32.96;81.46;101116.22;5380998;26;68716;-31
2024/04/15 02:36:52;;;;;;;7.47;6.97;;;;;;;33.04;81.91;101114.06;5396214;26;65095;-31
2024/04/15 02:39:22;;;;;;;7.45;6.68;;;;;;;33.05;80.82;101123.88;5385497;26;67546;-31
2024/04/15 02:41:53;;;;;;;7.63;6.97;;;;;;;33.08;81.21;101119.84;5380594;26;64558;-31
2024/04/15 02:44:24;;;;;;;7.95;7.25;;;;;;;33.13;81.28;101122.72;5383581;26;68084;-31
2024/04/15 02:46:54;;;;;;;7.50;6.85;;;;;;;33.15;81.06;101131.44;5385064;26;65189;-31
2024/04/15 02:49:25;;;;;;;7.35;6.95;;;;;;;33.19;81.05;101127.22;5350726;26;67879;-31
2024/04/15 02:51:57;;;;;;;7.60;7.07;;;;;;;33.23;80.38;101122.97;5383367;26;64489;-30
2024/04/15 02:54:28;;;;;;;8.48;7.13;;;;;;;33.25;80.85;101115.44;5384348;26;67820;-31
2024/04/15 02:56:59;;;;;;;6.97;6.27;;;;;;;33.28;80.19;101120.41;5383483;26;64710;-31
2024/04/15 02:59:30;;;;;;;8.90;6.88;;;;;;;33.32;80.46;101121.63;5382852;26;68508;-30
2024/04/15 03:02:00;;;;;;;7.50;7.00;;;;;;;33.34;80.61;101122.19;5384597;26;64533;-31
2024/04/15 03:04:31;;;;;;;9.30;6.77;;;;;;;33.37;80.97;101124.44;5383347;26;70105;-31
2024/04/15 03:07:03;;;;;;;;;;;;;;;33.33;80.76;101123.25;5385418;26;64339;-33
2024/04/15 03:09:34;;;;;;;6.53;6.03;;;;;;;33.37;80.76;101110.84;5382729;26;69328;-31
2024/04/15 03:12:04;;;;;;;6.60;6.07;;;;;;;33.47;79.54;101114.91;5392416;26;64896;-31
2024/04/15 03:14:36;;;;;;;7.10;6.65;;;;;;;33.50;80.50;101117.16;5383483;26;68314;-31
2024/04/15 03:17:07;;;;;;;7.27;6.40;;;;;;;33.51;79.49;101121.53;5363435;26;66074;-32
2024/04/15 03:19:42;;;;;;;7.05;6.47;;;;;;;33.57;80.18;101112.47;5383831;26;69118;-31
2024/04/15 03:22:13;;;;;;;6.77;6.37;;;;;;;33.59;80.28;101110.34;5384611;26;64362;-33
2024/04/15 03:24:47;;;;;;;7.38;6.55;;;;;;;33.42;79.56;101082.97;5379600;26;69313;-31
2024/04/15 03:27:27;;;;;;;6.97;6.38;;;;;;;33.65;79.44;101098.53;5382964;26;65038;-32
2024/04/15 03:30:07;;;;;;;6.50;6.03;;;;;;;33.69;79.99;101099.72;5372136;26;68313;-31
2024/04/15 03:32:38;;;;;;;7.15;6.53;;;;;;;33.70;79.25;101095.94;5384280;26;65162;-31
2024/04/15 03:35:14;;;;;;;6.43;6.03;;;;;;;33.71;79.03;101086.72;5384546;26;68654;-31
2024/04/15 03:37:45;;;;;;;6.50;6.10;;;;;;;33.78;79.37;101092.88;5381600;26;65580;-31
2024/04/15 03:40:16;;;;;;;;;;;;;;;33.77;79.37;101091.22;5384831;26;67876;-31
2024/04/15 03:42:48;;;;;;;5.93;5.53;;;;;;;33.88;78.43;101086.00;5379183;26;64752;-31
2024/04/15 03:45:20;;;;;;;5.78;5.38;;;;;;;33.90;79.17;101083.88;5391932;26;68674;-31
2024/04/15 03:47:51;;;;;;;5.57;5.28;;;;;;;33.93;78.65;101084.22;5403913;26;64324;-32
2024/04/15 03:50:26;;;;;;;8.33;5.93;;;;;;;33.96;78.75;101081.06;5379939;26;69087;-32
2024/04/15 03:52:58;;;;;;;7.85;5.55;;;;;;;33.99;78.13;101071.56;5385674;26;65578;-31
2024/04/15 03:55:29;;;;;;;5.32;4.93;;;;;;;34.01;78.22;101081.16;5384436;26;68094;-32
2024/04/15 03:58:00;;;;;;;5.70;5.30;;;;;;;34.05;78.73;101084.28;5382685;26;65813;-30
2024/04/15 04:00:31;;;;;;;5.35;4.95;;;;;;;34.09;78.22;101071.03;5384107;26;69016;-32
2024/04/15 04:03:02;;;;;;;5.75;5.40;;;;;;;34.09;78.61;101071.84;5384716;26;65743;-31
2024/04/15 04:05:33;;;;;;;5.33;4.93;;;;;;;34.14;78.12;101074.69;5383078;26;71095;-31
2024/04/15 04:08:04;;;;;;;5.50;5.15;;;;;;;34.13;78.31;101062.16;5383768;26;65343;-31
2024/04/15 04:10:36;;;;;;;6.00;5.43;;;;;;;34.20;78.04;101068.28;5382022;26;68766;-31
2024/04/15 04:13:08;;;;;;;5.20;4.82;;;;;;;34.19;78.00;101058.47;5376551;26;63932;-32
2024/04/15 04:15:40;;;;;;;5.67;5.10;;;;;;;34.24;78.38;101058.59;5382076;26;70116;-31
2024/04/15 04:18:13;;;;;;;5.75;5.30;;;;;;;34.28;78.31;101047.22;5385851;26;65788;-32
2024/04/15 04:20:44;;;;;;;5.53;5.22;;;;;;;34.30;77.67;101047.78;5392868;26;68573;-32
2024/04/15 04:23:15;;;;;;;5.15;4.82;;;;;;;34.27;77.95;101046.38;5383647;26;64791;-31
2024/04/15 04:25:47;;;;;;;8.43;5.53;;;;;;;34.33;77.50;101031.81;5368282;26;68914;-32
2024/04/15 04:28:18;;;;;;;5.80;5.30;;;;;;;34.37;78.09;101034.88;5379800;26;65137;-29
2024/04/15 04:30:49;;;;;;;5.83;5.33;;;;;;;34.38;77.77;101020.16;5380071;26;68685;-30
2024/04/15 04:33:20;;;;;;;5.70;5.30;;;;;;;34.40;77.31;101023.50;5379028;26;65546;-31
2024/04/15 04:35:51;;;;;;;5.57;5.18;;;;;;;34.42;78.17;101005.84;5374016;26;67898;-31
2024/04/15 04:38:22;;;;;;;5.82;5.43;;;;;;;34.47;77.53;101007.84;5383224;26;65113;-31
2024/04/15 04:40:59;;;;;;;5.67;5.27;;;;;;;34.52;77.71;101016.13;5384608;26;68857;-31
2024/04/15 04:43:30;;;;;;;8.02;5.68;;;;;;;34.56;77.28;101011.88;5387347;26;64413;-32
2024/04/15 04:46:12;;;;;;;7.53;5.63;;;;;;;34.31;77.61;100965.03;5358984;26;69263;-31
2024/04/15 04:48:43;;;;;;;5.55;5.05;;;;;;;34.58;77.63;101009.72;5385298;26;64168;-31
2024/04/15 04:51:15;;;;;;;5.63;5.22;;;;;;;34.62;77.57;101000.00;5386117;26;67716;-31
2024/04/15 04:53:47;;;;;;;5.95;5.55;;;;;;;34.57;76.88;100983.53;5406035;26;64913;-32
2024/04/15 04:56:18;;;;;;;5.20;4.90;;;;;;;34.72;76.96;100998.56;5401373;26;69561;-31
2024/04/15 04:58:51;;;;;;;4.93;4.63;;;;;;;34.74;76.92;100988.22;5381203;26;66018;-32
2024/04/15 05:01:22;;;;;;;5.53;5.05;;;;;;;34.70;77.27;100985.97;5386790;26;68898;-31
2024/04/15 05:03:56;;;;;;;5.80;5.28;;;;;;;34.78;76.56;100987.50;5364477;26;65672;-31
2024/04/15 05:06:27;;;;;;;4.50;4.30;;;;;;;34.83;77.03;100987.59;5407643;26;68105;-31
2024/04/15 05:09:00;;;;;;;4.90;4.60;;;;;;;34.83;77.16;100978.59;5384936;26;64921;-31
2024/04/15 05:11:31;;;;;;;5.63;5.13;;;;;;;34.87;76.75;100968.84;5386439;26;68887;-30
2024/04/15 05:14:02;;;;;;;6.80;4.78;;;;;;;34.91;76.42;100959.13;5384312;26;65433;-31
2024/04/15 05:16:37;;;;;;;5.32;5.03;;;;;;;34.92;76.31;100960.75;5385851;26;68344;-33
2024/04/15 05:19:08;;;;;;;5.07;4.78;;;;;;;34.91;76.50;100953.66;5383852;26;63718;-31
2024/04/15 05:21:39;;;;;;;5.18;4.88;;;;;;;34.93;76.77;100946.03;5382626;26;69103;-31
2024/04/15 05:24:11;;;;;;;5.30;4.90;;;;;;;34.98;76.26;100943.41;5385189;26;64969;-31
2024/04/15 05:26:48;;;;;;;4.82;4.53;;;;;;;34.86;76.57;100912.69;5373119;26;68543;-31
2024/04/15 05:29:19;;;;;;;4.78;4.43;;;;;;;35.03;76.60;100924.41;5384440;26;65100;-31
2024/04/15 05:31:51;;;;;;;5.07;4.68;;;;;;;35.04;75.94;100920.59;5385163;26;69662;-31
2024/04/15 05:34:23;;;;;;;4.90;4.60;;;;;;;35.08;76.13;100921.81;5379562;26;65152;-30
2024/04/15 05:36:55;;;;;;;4.57;4.28;;;;;;;35.10;75.86;100913.38;5386254;26;68793;-31
2024/04/15 05:39:26;;;;;;;5.43;4.85;;;;;;;35.09;76.41;100903.53;5384698;26;65059;-30
2024/04/15 05:41:57;;;;;;;5.32;5.03;;;;;;;35.14;76.31;100906.34;5384349;26;69612;-31
2024/04/15 05:44:28;;;;;;;;;;;;;;;35.16;75.66;100906.09;5387372;26;65494;-33
2024/04/15 05:46:59;;;;;;;5.45;5.05;;;;;;;35.25;75.46;100899.16;5382357;26;68732;-31
2024/04/15 05:49:37;;;;;;;4.85;4.55;;;;;;;35.05;75.38;100862.31;5385568;26;64192;-32
2024/04/15 05:52:10;;;;;;;4.60;4.30;;;;;;;35.31;75.66;100892.69;5383517;26;67993;-31
2024/04/15 05:54:42;;;;;;;4.72;4.43;;;;;;;35.32;75.51;100883.44;5383053;26;65780;-32
2024/04/15 05:57:13;;;;;;;4.95;4.57;;;;;;;35.34;75.44;100875.84;5384268;26;67784;-30
2024/04/15 05:59:44;;;;;;;4.70;4.40;;;;;;;35.37;75.30;100875.31;5383797;26;65628;-31
2024/04/15 06:02:15;;;;;;;4.57;4.27;;;;;;;35.41;75.33;100865.59;5396183;26;69188;-31
2024/04/15 06:04:46;;;;;;;4.32;4.03;;;;;;;35.43;75.38;100857.94;5380025;26;64079;-31
2024/04/15 06:07:20;;;;;;;4.70;4.07;;;;;;;35.47;75.33;100853.66;5385631;26;68665;-31
2024/04/15 06:09:52;;;;;;;4.68;4.40;;;;;;;35.49;75.50;100851.47;5383769;26;65297;-30
2024/04/15 06:12:25;;;;;;;4.53;4.22;;;;;;;35.46;75.42;100832.06;5386122;26;68462;-31
2024/04/15 06:14:58;;;;;;;4.22;3.92;;;;;;;35.57;74.88;100836.63;5381266;26;65134;-31
2024/04/15 06:17:31;;;;;;;4.35;4.05;;;;;;;35.57;74.83;100840.16;5385720;26;67981;-30
2024/04/15 06:20:02;;;;;;;3.95;3.75;;;;;;;35.66;75.75;100851.47;5385671;26;65223;-32
2024/04/15 06:22:33;;;;;;;4.40;4.03;;;;;;;35.70;75.13;100829.97;5381577;26;69273;-31
2024/04/15 06:25:05;;;;;;;4.03;3.83;;;;;;;35.72;75.27;100828.63;5385487;26;63898;-30
2024/04/15 06:27:36;;;;;;;3.97;3.67;;;;;;;35.77;74.86;100825.13;5385224;26;68159;-32
2024/04/15 06:30:09;;;;;;;3.80;3.60;;;;;;;35.82;74.88;100822.44;5384363;26;65857;-31
2024/04/15 06:32:40;;;;;;;3.60;3.40;;;;;;;35.85;74.61;100816.47;5384110;26;69130;-31
2024/04/15 06:35:11;;;;;;;3.67;3.35;;;;;;;35.89;74.36;100820.34;5392593;26;66319;-30
2024/04/15 06:37:48;;;;;;;3.53;3.33;;;;;;;35.94;74.78;100809.50;5384493;26;67755;-31
2024/04/15 06:40:19;;;;;;;3.55;3.25;;;;;;;35.97;74.48;100797.25;5363449;26;64980;-33
2024/04/15 06:42:50;;;;;;;3.67;3.40;;;;;;;36.02;74.36;100800.00;5360132;26;67783;-31
2024/04/15 06:45:21;;;;;;;3.40;3.20;;;;;;;36.08;74.25;100806.38;5385672;26;64419;-31
2024/04/15 06:47:53;;;;;;;3.67;3.25;;;;;;;36.11;74.41;100792.19;5383025;26;68237;-31
2024/04/15 06:50:24;;;;;;;3.90;3.53;;;;;;;36.14;74.56;100791.72;5382351;26;65065;-30
2024/04/15 06:52:55;;;;;;;3.58;3.28;;;;;;;36.17;73.75;100783.00;5385139;26;67828;-32
2024/04/15 06:55:27;;;;;;;3.30;2.80;;;;;;;36.24;74.37;100791.78;5385027;26;65019;-32
2024/04/15 06:57:58;;;;;;;3.50;3.30;;;;;;;36.28;73.89;100782.00;5384622;26;67646;-30
2024/04/15 07:00:31;;;;;;;3.33;3.13;;;;;;;36.33;74.15;100773.84;5383736;26;64868;-33
2024/04/15 07:03:02;;;;;;;3.38;3.00;;;;;;;36.34;73.40;100764.56;5381939;26;67589;-31
2024/04/15 07:05:36;;;;;;;3.08;2.88;;;;;;;36.23;73.29;100738.25;5385519;26;65823;-31
2024/04/15 07:08:08;;;;;;;3.03;2.83;;;;;;;36.50;73.93;100770.13;5414734;26;68511;-33
2024/04/15 07:10:40;;;;;;;3.35;3.15;;;;;;;36.54;73.66;100777.59;5387964;26;64156;-31
2024/04/15 07:13:11;;;;;;;3.38;3.08;;;;;;;36.60;73.27;100764.78;5380395;26;69609;-32
2024/04/15 07:15:41;;;;;;;4.93;2.67;;;;;;;36.65;73.27;100770.28;5384477;26;65034;-35
2024/04/15 07:18:15;;;;;;;2.75;2.55;;;;;;;36.70;73.24;100767.59;5377093;26;68317;-33
2024/04/15 07:20:46;;;;;;;2.72;2.53;;;;;;;36.78;72.84;100764.38;5385058;26;64359;-30
2024/04/15 07:23:18;;;;;;;2.58;2.38;;;;;;;36.82;72.46;100762.75;5383109;26;69857;-32
2024/04/15 07:25:59;;;;;;;2.47;2.28;;;;;;;36.67;72.11;100733.41;5383600;26;65663;-31
2024/04/15 07:28:30;;;;;;;2.92;2.72;;;;;;;36.95;72.38;100761.47;5384212;26;68019;-30
2024/04/15 07:31:03;;;;;;;2.80;2.60;;;;;;;37.01;72.13;100751.38;5380553;26;64337;-33
2024/04/15 07:33:35;;;;;;;2.53;2.33;;;;;;;37.06;72.30;100759.66;5384007;26;68597;-32
2024/04/15 07:36:07;;;;;;;2.90;2.70;;;;;;;37.12;72.59;100758.56;5381131;26;64995;-30
2024/04/15 07:38:39;;;;;;;2.97;2.63;;;;;;;37.17;71.91;100744.94;5379867;26;68321;-31
2024/04/15 07:41:10;;;;;;;4.68;2.03;;;;;;;37.24;72.07;100742.75;5384381;26;65787;-31
2024/04/15 07:43:41;;;;;;;;;;;;;;;37.17;70.28;100738.59;5392272;26;68098;-32
2024/04/15 07:46:12;;;;;;;2.50;2.30;;;;;;;37.35;72.20;100741.69;5404539;26;64585;-32
2024/04/15 07:48:44;;;;;;;4.43;2.40;;;;;;;37.41;72.22;100741.72;5383311;26;67972;-32
2024/04/15 07:51:15;;;;;;;2.45;2.00;;;;;;;37.45;71.61;100735.44;5381997;26;64729;-32
2024/04/15 07:53:50;;;;;;;2.80;2.28;;;;;;;37.47;72.00;100727.81;5383314;26;69010;-31
2024/04/15 07:56:22;;;;;;;2.58;2.38;;;;;;;37.49;71.62;100714.69;5384376;26;65446;-31
2024/04/15 07:58:54;;;;;;;2.35;2.10;;;;;;;37.58;70.94;100725.91;5379854;26;69337;-31
2024/04/15 08:01:28;;;;;;;2.42;2.03;;;;;;;37.61;71.69;100719.91;5382679;26;65964;-30
2024/04/15 08:04:00;;;;;;;1.77;1.67;;;;;;;37.63;70.69;100731.41;5380370;26;67835;-30
2024/04/15 08:06:36;;;;;;;2.15;1.95;;;;;;;37.69;71.71;100708.44;5383333;26;64487;-32
2024/04/15 08:09:09;;;;;;;2.17;1.73;;;;;;;37.72;71.26;100718.88;5381720;26;67906;-30
2024/04/15 08:11:40;;;;;;;2.00;1.90;;;;;;;37.73;70.76;100709.53;5379764;26;65414;-33
2024/04/15 08:14:13;;;;;;;4.47;2.42;;;;;;;37.72;70.24;100696.97;5383884;26;68917;-31
2024/04/15 08:16:44;;;;;;;2.42;1.95;;;;;;;37.81;70.83;100707.34;5389220;26;64319;-31
2024/04/15 08:19:16;;;;;;;1.95;1.85;;;;;;;37.84;71.36;100709.56;5389346;26;69455;-32
2024/04/15 08:21:47;;;;;;;2.45;2.22;;;;;;;37.84;70.59;100712.31;5383077;26;65312;-34
2024/04/15 08:24:19;;;;;;;2.58;2.10;;;;;;;37.85;70.64;100700.25;5384222;26;68364;-33
2024/04/15 08:27:04;;;;;;;2.30;2.10;;;;;;;37.84;70.39;100687.66;5382478;26;65628;-32
2024/04/15 08:29:54;;;;;;;2.50;2.30;;;;;;;37.90;70.59;100701.06;5382157;26;67993;-31
2024/04/15 08:32:30;;;;;;;2.35;2.20;;;;;;;37.91;71.02;100704.63;5383423;26;65000;-31
2024/04/15 08:35:02;;;;;;;2.35;2.25;;;;;;;37.94;70.73;100695.88;5382970;26;68256;-31
2024/04/15 08:37:46;;;;;;;2.22;2.03;;;;;;;37.94;70.70;100698.59;5381063;26;65536;-31
2024/04/15 08:40:17;;;;;;;4.88;2.17;;;;;;;37.94;70.99;100704.06;5382439;26;68801;-34
2024/04/15 08:42:52;;;;;;;2.20;2.05;;;;;;;37.75;71.02;100674.53;5376671;26;64538;-32
2024/04/15 08:45:24;;;;;;;2.28;2.10;;;;;;;37.91;70.33;100705.44;5383085;26;68424;-33
2024/04/15 08:47:58;;;;;;;2.30;2.03;;;;;;;37.97;70.29;100709.03;5382278;26;64254;-30
2024/04/15 08:50:30;;;;;;;3.47;2.20;;;;;;;37.98;70.31;100713.44;5375077;26;68781;-31
2024/04/15 08:53:02;;;;;;;2.00;1.90;;;;;;;37.98;70.24;100710.69;5390873;26;65883;-31
2024/04/15 08:55:34;;;;;;;2.55;2.35;;;;;;;37.98;71.29;100710.69;5379889;26;68800;-31
2024/04/15 08:58:12;;;;;;;1.98;1.88;;;;;;;37.96;71.07;100707.41;5377402;26;64341;-31
2024/04/15 09:00:45;;;;;;;2.30;2.20;;;;;;;37.98;70.47;100711.53;5382959;26;68703;-34
2024/04/15 09:03:18;;;;;;;2.03;1.88;;;;;;;37.92;71.08;100706.25;5382569;26;65511;-31
2024/04/15 09:05:51;;;;;;;2.47;2.28;;;;;;;37.97;71.15;100720.84;5381756;26;68913;-33
2024/04/15 09:08:22;;;;;;;2.35;2.17;;;;;;;37.96;70.36;100721.91;5380079;26;65292;-33
2024/04/15 09:10:53;;;;;;;2.25;2.10;;;;;;;37.95;70.39;100722.19;5382981;26;68960;-31
2024/04/15 09:13:25;;;;;;;3.38;2.17;;;;;;;37.96;71.37;100718.34;5381559;26;63728;-32
2024/04/15 09:15:56;;;;;;;4.65;2.25;;;;;;;37.91;70.22;100701.88;5376981;26;69715;-32
2024/04/15 09:18:27;;;;;;;3.33;2.92;;;;;;;37.79;70.69;100702.16;5380607;26;64692;-31
2024/04/15 09:21:00;;;;;;;5.63;3.30;;;;;;;37.77;71.03;100712.56;5382393;26;68779;-31
2024/04/15 09:23:35;;;;;;;3.72;3.00;;;;;;;37.75;71.13;100715.56;5380510;26;64596;-32
2024/04/15 09:26:08;;;;;;;7.07;3.40;;;;;;;37.66;71.84;100714.44;5394946;26;68976;-31
2024/04/15 09:28:39;;;;;;;3.92;3.53;;;;;;;37.65;71.86;100718.28;5399041;26;64183;-31
2024/04/15 09:31:11;;;;;;;6.28;3.22;;;;;;;37.68;71.58;100712.28;5385086;26;68786;-31
2024/04/15 09:33:42;;;;;;;3.40;3.20;;;;;;;37.55;72.45;100718.25;5384539;26;65438;-32
2024/04/15 09:36:15;;;;;;;4.70;3.40;;;;;;;37.55;72.02;100713.59;5383137;26;68868;-31
2024/04/15 09:38:49;;;;;;;7.28;3.90;;;;;;;37.57;72.24;100727.03;5386440;26;65080;-33
2024/04/15 09:41:20;;;;;;;4.25;3.90;;;;;;;37.54;71.74;100727.56;5373550;26;69085;-32
2024/04/15 09:43:56;;;;;;;3.50;3.13;;;;;;;37.07;72.78;100668.31;5380637;26;65525;-32
2024/04/15 09:46:33;;;;;;;3.88;3.40;;;;;;;37.44;71.97;100732.97;5383704;26;68923;-31
2024/04/15 09:49:04;;;;;;;3.85;3.55;;;;;;;37.40;72.68;100718.19;5379742;26;64135;-31
2024/04/15 09:51:37;;;;;;;;;;;;;;;37.27;72.81;100725.81;5385820;26;68859;-31
2024/04/15 09:54:10;;;;;;;5.80;3.83;;;;;;;37.34;72.06;100729.13;5383695;26;64609;-31
2024/04/15 09:56:47;;;;;;;4.28;3.88;;;;;;;37.35;72.37;100730.75;5382654;26;69151;-31
2024/04/15 09:59:21;;;;;;;7.60;3.53;;;;;;;37.33;72.34;100734.84;5390585;26;64655;-31
2024/04/15 10:01:54;;;;;;;9.65;4.00;;;;;;;37.23;72.03;100721.97;5392105;26;68376;-31
2024/04/15 10:04:32;;;;;;;3.90;3.60;;;;;;;36.92;72.29;100682.72;5385611;26;65674;-31
2024/04/15 10:07:04;;;;;;;3.80;3.50;;;;;;;37.25;71.82;100727.16;5385817;26;69122;-31
2024/04/15 10:09:36;;;;;;;5.40;3.97;;;;;;;37.17;71.29;100725.78;5380655;26;64031;-31
2024/04/15 10:12:08;;;;;;;3.58;3.33;;;;;;;37.19;72.02;100733.69;5413452;26;68967;-31
2024/04/15 10:14:41;;;;;;;3.88;3.42;;;;;;;37.13;71.99;100730.13;5378320;26;65180;-31
2024/04/15 10:17:12;;;;;;;4.13;3.83;;;;;;;37.10;71.29;100722.47;5384910;26;68831;-32
2024/04/15 10:19:47;;;;;;;4.00;3.65;;;;;;;37.02;71.76;100731.16;5385413;26;65077;-31
2024/04/15 10:22:24;;;;;;;3.80;3.50;;;;;;;36.97;72.27;100731.97;5382048;26;68405;-32
2024/04/15 10:25:18;;;;;;;3.88;3.33;;;;;;;36.99;71.47;100729.75;5385451;26;65176;-32
2024/04/15 10:27:51;;;;;;;3.60;3.30;;;;;;;37.01;71.21;100724.03;5383897;26;68705;-30
2024/04/15 10:30:22;;;;;;;;;;;;;;;36.89;71.63;100733.28;5386462;26;63560;-33
2024/04/15 10:33:20;;;;;;;3.47;3.25;;;;;;;36.94;71.67;100723.44;5381207;26;68539;-31
2024/04/15 10:35:54;;;;;;;3.80;3.50;;;;;;;36.84;72.14;100729.69;5401600;26;64355;-31
2024/04/15 10:38:28;;;;;;;3.85;3.55;;;;;;;36.58;71.77;100695.91;5385998;26;68203;-32
2024/04/15 10:41:06;;;;;;;4.93;4.60;;;;;;;36.78;72.38;100736.22;5386091;26;64039;-32
2024/04/15 10:43:40;;;;;;;6.50;4.82;;;;;;;36.72;72.45;100726.31;5387171;26;69208;-31
2024/04/15 10:46:16;;;;;;;7.97;4.68;;;;;;;36.71;72.80;100730.97;5386969;26;65560;-31
2024/04/15 10:48:47;;;;;;;4.95;4.45;;;;;;;36.62;72.77;100746.22;5387461;26;68864;-32
2024/04/15 10:51:19;;;;;;;4.65;4.25;;;;;;;36.54;72.86;100735.78;5364329;26;67062;-31
2024/04/15 10:53:49;;;;;;;;;;;;;;;36.56;73.30;100741.81;5386535;26;67099;-31
2024/04/15 10:56:22;;;;;;;5.45;5.05;;;;;;;36.55;73.29;100737.41;5388458;26;65949;-32
2024/04/15 10:58:54;;;;;;;10.43;5.80;;;;;;;36.45;74.01;100743.63;5395975;26;68661;-31
2024/04/15 11:01:27;;;;;;;6.80;6.20;;;;;;;36.42;74.58;100749.59;5387590;26;66724;-31
2024/04/15 11:04:04;;;;;;;8.30;5.70;;;;;;;36.43;73.93;100741.13;5374374;26;68722;-33
2024/04/15 11:06:36;;;;;;;9.25;6.00;;;;;;;36.35;74.20;100743.53;5368071;26;64874;-32
2024/04/15 11:09:11;;;;;;;6.13;5.63;;;;;;;36.31;74.83;100742.41;5386859;26;68847;-32
2024/04/15 11:11:44;;;;;;;6.03;5.63;;;;;;;36.23;75.58;100749.19;5363416;26;64322;-31
2024/04/15 11:14:17;;;;;;;6.57;6.00;;;;;;;36.27;75.48;100753.03;5386104;26;68218;-30
2024/04/15 11:16:48;;;;;;;6.57;5.75;;;;;;;36.27;75.52;100758.47;5376504;26;65124;-33
2024/04/15 11:19:22;;;;;;;8.23;5.80;;;;;;;36.20;76.10;100757.91;5379074;26;68399;-31
2024/04/15 11:22:14;;;;;;;6.30;5.80;;;;;;;36.12;76.75;100755.63;5386891;26;65427;-32
2024/04/15 11:24:51;;;;;;;17.40;6.70;;;;;;;36.18;76.59;100760.88;5386779;26;68826;-32
2024/04/15 11:27:26;;;;;;;7.40;6.70;;;;;;;35.99;76.32;100735.00;5386871;26;65055;-32
2024/04/15 11:29:59;;;;;;;7.05;6.47;;;;;;;35.86;76.77;100719.88;5386245;26;67875;-32
2024/04/15 11:32:34;;;;;;;7.15;6.65;;;;;;;36.07;78.12;100755.59;5396831;26;64447;-34
2024/04/15 11:35:05;;;;;;;;;;;;;;;35.99;79.44;100768.56;5394938;26;67872;-33
2024/04/15 11:37:36;;;;;;;9.88;7.82;;;;;;;35.99;78.38;100756.84;5387618;26;66252;-33
2024/04/15 11:40:14;;;;;;;7.30;6.57;;;;;;;35.82;77.58;100724.19;5386481;26;67936;-34
2024/04/15 11:42:46;;;;;;;6.90;6.30;;;;;;;36.05;77.61;100760.44;5364063;26;65092;-31
2024/04/15 11:45:17;;;;;;;7.05;6.55;;;;;;;36.02;78.41;100768.09;5384956;26;68744;-32
2024/04/15 11:47:55;;;;;;;6.67;6.20;;;;;;;35.99;78.53;100768.56;5387041;26;64331;-33
2024/04/15 11:50:35;;;;;;;8.23;6.13;;;;;;;35.97;78.57;100770.75;5386508;26;68577;-32